Portada
METAR-TAF:

METAR-TAF

Aeropuertos :

Aeropuerto Internacional de Maputo

Maputo, Mozambique

latitud: 25-55S, longitud: 032-34E, altitud: 39 m

Observación

El informe se hizo hace 44 minutos, a las 14:00 UTC
Viento 7 kt del este
Temperatura 29°C
Humedad 66%
Presión 1015 hPa
Visibilidad 10 km o más
Escasas nubes a una altura de 2000 ft

METAR: FQMA 241400Z 08007KT 9999 FEW020 29/22 Q1015 NOSIG

Hora: 16:44 (14:44 UTC)

Pronóstico

El informe se hizo hace 4 horas y 44 minutos, a las 10:00 UTC
Pronóstico válido del 24 a las 12 UTC al 25 a las 18 UTC
Viento 6 kt del este
Visibilidad 10 km o más
Nubes dispersas a una altura de 2000 ft
Evolucionando progresivamente
del 24 a las 18 UTC al 24 a las 20 UTC
Viento 8 kt del norte-noreste
Evolucionando progresivamente
del 25 a las 00 UTC al 25 a las 02 UTC
Viento 10 kt del norte-noroeste

TAF: FQMA 241000Z 2412/2518 09006KT 9999 SCT020 TX29/2413Z TN21/2503Z BECMG 2418/2420 03008KT BECMG 2500/2502 33010KT

Observaciones y pronósticos meteorológicos de más de 4000 aeropuertos (mensajes METAR y TAF).

Los puntos amarillos y rojos representan las estaciones disponibles.

Ponga el ratón en el punto deseado para ver el nombre de la estación.

Haga clic para ver las observaciones y los pronósticos meteorológicos.

Para cambiar el mapa : haga clic en los botones verdes con una cruz de color negro para hacer un zoom, en el botón verde con un guión para alejar o en las flechas verdes para mapas adyacentes.


METAR-TAF: